CW5139 Weather Reports


Display with metric or nautical units.
time (UTC)temp
F
wind
direction
speed
MPH
gust
MPH
rain 1hr
in
rain 24hr
in
rain mn
in
humidity
%
barometer
mb
20201026192058 51 327 5.0 11.0 0.00 0.00 0.00 83 1020.3
20201026191838 51 289 6.0 9.0 0.00 0.00 0.00 84 1019.5
20201026191609 51 304 2.0 10.0 0.00 0.00 0.00 84 1020.3
20201026191338 51 350 2.0 9.0 0.00 0.00 0.00 85 1019.3
20201026191043 51 304 1.0 9.0 0.00 0.00 0.00 84 1020.2
20201026190832 51 285 2.0 8.0 0.00 0.00 0.00 85 1019.2
20201026190535 51 279 2.0 8.0 0.00 0.00 0.00 85 1020.1
20201026190340 51 340 2.0 7.0 0.00 0.00 0.00 86 1019.3
20201026190114 51 352 0.0 6.0 0.00 0.00 0.00 85 1020.1
20201026185825 51 1 0.0 6.0 0.00 0.00 0.00 86 1019.3
20201026185534 51 0 0.0 8.0 0.00 0.00 0.00 85 1020.1
20201026185329 51 312 1.0 7.0 0.00 0.00 0.00 86 1019.3
20201026185041 51 296 1.0 10.0 0.00 0.00 0.00 85 1020.1
20201026184824 51 319 2.0 9.0 0.00 0.00 0.00 85 1019.4
20201026184627 51 0 1.0 12.0 0.00 0.00 0.00 85 1020.3
20201026184323 51 318 2.0 11.0 0.00 0.00 0.00 85 1019.3
20201026184054 52 325 1.0 12.0 0.00 0.00 0.00 84 1020.2
20201026183823 51 328 3.0 11.0 0.00 0.00 0.00 84 1019.4
20201026183536 52 321 3.0 8.0 0.00 0.00 0.00 84 1020.2
20201026183320 51 297 2.0 7.0 0.00 0.00 0.00 84 1019.2
20201026183146 52 343 1.0 8.0 0.00 0.00 0.00 84 1020.1
20201026182837 52 332 1.0 7.0 0.00 0.00 0.00 84 1019.3
20201026182533 52 341 0.0 9.0 0.00 0.00 0.00 83 1020.2
20201026182335 52 307 1.0 8.0 0.00 0.00 0.00 84 1019.3
20201026182040 53 315 0.0 9.0 0.00 0.00 0.00 83 1020.1
20201026181830 52 301 1.0 8.0 0.00 0.00 0.00 83 1019.3
20201026181538 53 0 1.0 9.0 0.00 0.00 0.00 82 1020.1
20201026181333 53 317 1.0 8.0 0.00 0.00 0.00 82 1019.2
20201026181033 53 326 0.0 9.0 0.00 0.00 0.00 81 1020.0
20201026180833 53 266 1.0 8.0 0.00 0.00 0.00 81 1019.2
20201026180536 54 278 1.0 7.0 0.00 0.00 0.00 80 1020.1
20201026180329 53 246 1.0 6.0 0.00 0.00 0.00 80 1019.2
20201026180035 54 0 1.0 8.0 0.00 0.00 0.00 79 1020.0
20201026175831 53 287 2.0 7.0 0.00 0.00 0.00 79 1019.2
20201026175533 54 250 1.0 8.0 0.00 0.00 0.00 79 1020.1
20201026175321 54 287 1.0 7.0 0.00 0.00 0.00 79 1019.2
20201026175037 54 0 0.0 8.0 0.00 0.00 0.00 79 1019.9
20201026174819 54 303 1.0 7.0 0.00 0.00 0.00 79 1019.1
20201026174615 54 0 1.0 8.0 0.00 0.00 0.00 79 1019.9
20201026174321 54 274 2.0 7.0 0.00 0.00 0.00 79 1019.2
20201026174032 54 0 0.0 9.0 0.00 0.00 0.00 79 1020.0
20201026173835 54 272 1.0 8.0 0.00 0.00 0.00 79 1019.2
20201026173540 54 293 2.0 9.0 0.00 0.00 0.00 79 1020.0
20201026173336 54 286 2.0 10.0 0.00 0.00 0.00 79 1019.1
20201026173143 54 302 2.0 11.0 0.00 0.00 0.00 78 1019.9
20201026172831 54 306 2.0 10.0 0.00 0.00 0.00 79 1019.1
20201026172542 54 309 3.0 11.0 0.00 0.00 0.00 79 1020.0
20201026172334 54 312 2.0 8.0 0.00 0.00 0.00 79 1019.1
20201026172038 54 0 2.0 10.0 0.00 0.00 0.00 79 1020.0
20201026171831 54 316 2.0 9.0 0.00 0.00 0.00 79 1019.1
20201026171535 54 0 3.0 10.0 0.00 0.00 0.00 79 1020.0
20201026171331 54 321 3.0 9.0 0.00 0.00 0.00 79 1019.3
20201026171033 54 301 2.0 10.0 0.00 0.00 0.00 79 1020.1
20201026170828 54 298 2.0 9.0 0.00 0.00 0.00 79 1019.3
20201026170532 54 280 1.0 10.0 0.00 0.00 0.00 79 1020.1
20201026170332 54 269 1.0 9.0 0.00 0.00 0.00 79 1019.3
20201026170048 54 283 2.0 9.0 0.00 0.00 0.00 79 1020.1
20201026165825 54 243 1.0 8.0 0.00 0.00 0.00 80 1019.3
20201026165535 54 252 2.0 8.0 0.00 0.00 0.00 79 1020.1
20201026165330 54 228 1.0 8.0 0.00 0.00 0.00 80 1019.3
20201026165042 54 240 1.0 6.0 0.00 0.00 0.00 80 1020.1
20201026164830 54 330 0.0 7.0 0.00 0.00 0.00 80 1019.2
20201026164623 54 184 2.0 7.0 0.00 0.00 0.00 79 1020.1
20201026164326 54 185 2.0 7.0 0.00 0.00 0.00 80 1019.3
20201026164034 54 177 4.0 7.0 0.00 0.00 0.00 79 1020.0
20201026163829 54 210 3.0 6.0 0.00 0.00 0.00 81 1019.0
20201026163535 54 0 1.0 5.0 0.00 0.00 0.00 80 1019.9
20201026163324 54 236 2.0 5.0 0.00 0.00 0.00 81 1019.0
20201026163053 54 0 2.0 6.0 0.00 0.00 0.00 80 1019.9
20201026162841 53 236 2.0 5.0 0.00 0.00 0.00 81 1019.1
20201026162548 54 232 2.0 6.0 0.00 0.00 0.00 80 1019.9
20201026162317 53 271 2.0 5.0 0.00 0.00 0.00 81 1019.0
20201026162050 53 267 0.0 4.0 0.00 0.00 0.00 81 1019.8
20201026161819 53 268 0.0 0.0 0.00 0.00 0.00 82 1019.1
20201026161552 53 0 0.0 0.0 0.00 0.00 0.00 82 1019.9
20201026161320 53 268 0.0 0.0 0.00 0.00 0.00 83 1019.1
20201026161032 53 0 0.0 2.0 0.00 0.00 0.00 83 1019.9
20201026160819 52 270 0.0 2.0 0.00 0.00 0.00 84 1019.0
20201026160533 52 0 0.0 2.0 0.00 0.00 0.00 84 1019.8
20201026160321 52 270 0.0 2.0 0.00 0.00 0.00 85 1019.1
20201026160051 52 0 0.0 4.0 0.00 0.00 0.00 84 1019.9
20201026155824 52 274 0.0 4.0 0.00 0.00 0.00 85 1019.1
20201026155539 52 0 1.0 4.0 0.00 0.00 0.00 85 1019.8
20201026155320 51 274 2.0 4.0 0.00 0.00 0.00 85 1019.0
20201026155031 52 273 0.0 3.0 0.00 0.00 0.00 85 1019.8
20201026154836 51 331 0.0 0.0 0.00 0.00 0.00 86 1018.9
20201026154603 52 0 0.0 0.0 0.00 0.00 0.00 87 1019.8
20201026154318 51 332 0.0 0.0 0.00 0.00 0.00 87 1019.0
20201026154036 51 0 0.0 0.0 0.00 0.00 0.00 87 1019.8
20201026153838 50 332 0.0 0.0 0.00 0.00 0.00 87 1019.0
20201026153531 51 0 0.0 0.0 0.00 0.00 0.00 87 1019.9
20201026153317 50 332 0.0 0.0 0.00 0.00 0.00 88 1019.0
20201026153206 51 0 0.0 0.0 0.00 0.00 0.00 88 1019.8
20201026152837 50 332 0.0 0.0 0.00 0.00 0.00 88 1019.0
20201026152540 51 0 0.0 0.0 0.00 0.00 0.00 88 1019.9
20201026152338 50 332 0.0 0.0 0.00 0.00 0.00 89 1019.0
20201026152037 50 0 0.0 0.0 0.00 0.00 0.00 89 1020.0
20201026151833 50 333 0.0 0.0 0.00 0.00 0.00 89 1019.1
20201026151545 50 0 0.0 0.0 0.00 0.00 0.00 88 1020.1
20201026151325 49 333 0.0 0.0 0.00 0.00 0.00 89 1019.2
20201026151041 50 0 0.0 0.0 0.00 0.00 0.00 89 1020.1
20201026150826 49 333 0.0 0.0 0.00 0.00 0.00 89 1019.2
20201026150532 50 0 0.0 0.0 0.00 0.00 0.00 89 1020.0
20201026150324 49 333 0.0 0.0 0.00 0.00 0.00 89 1019.1
20201026150141 49 0 0.0 0.0 0.00 0.00 0.00 89 1019.9
20201026145825 49 333 0.0 0.0 0.00 0.00 0.00 89 1019.1
20201026145531 49 0 0.0 0.0 0.00 0.00 0.00 89 1019.9
20201026145324 49 333 0.0 0.0 0.00 0.00 0.00 90 1019.1
20201026145032 49 0 0.0 2.0 0.00 0.00 0.00 89 1019.9
20201026144824 49 332 0.0 3.0 0.00 0.00 0.00 90 1019.3
20201026144542 49 0 0.0 3.0 0.00 0.00 0.00 89 1020.2
20201026144340 49 332 0.0 3.0 0.00 0.00 0.00 90 1019.3
20201026144031 49 331 0.0 3.0 0.00 0.00 0.00 89 1020.3
20201026143833 49 332 0.0 0.0 0.00 0.00 0.00 90 1019.5
20201026143532 49 0 0.0 0.0 0.00 0.00 0.00 90 1020.2
20201026143329 48 332 0.0 0.0 0.00 0.00 0.00 90 1019.3
20201026143058 49 0 0.0 0.0 0.00 0.00 0.00 89 1020.0
20201026142824 48 332 0.0 0.0 0.00 0.00 0.00 90 1019.2
20201026142530 49 0 0.0 0.0 0.00 0.00 0.00 90 1020.0
20201026142327 48 332 0.0 0.0 0.00 0.00 0.00 90 1019.2
20201026142041 49 0 0.0 0.0 0.00 0.00 0.00 90 1020.1
20201026141837 48 332 0.0 0.0 0.00 0.00 0.00 90 1019.2
20201026141737 49 0 0.0 0.0 0.00 0.00 0.00 90 1020.1
20201026141333 48 332 0.0 0.0 0.00 0.00 0.00 90 1019.2
20201026141031 49 0 0.0 0.0 0.00 0.00 0.00 90 1020.1
20201026140828 48 332 0.0 0.0 0.00 0.00 0.00 90 1019.3
20201026140533 48 0 0.0 0.0 0.00 0.00 0.00 90 1020.2
20201026140329 48 332 0.0 0.0 0.00 0.00 0.00 90 1019.4
20201026140109 48 0 0.0 0.0 0.00 0.00 0.00 90 1020.2
20201026135823 48 332 0.0 0.0 0.00 0.00 0.00 90 1019.4
20201026135533 48 0 0.0 0.0 0.00 0.00 0.00 90 1020.2
20201026135040 48 0 0.0 0.0 0.00 0.00 0.00 90 1020.1
20201026134835 48 332 0.0 0.0 0.00 0.00 0.00 90 1019.2
20201026134640 48 0 0.0 0.0 0.00 0.00 0.00 90 1020.0
20201026134334 48 332 0.0 0.0 0.00 0.00 0.00 90 1019.2
20201026134032 48 0 0.0 0.0 0.00 0.00 0.00 90 1020.0
20201026133833 48 332 0.0 0.0 0.00 0.00 0.00 90 1019.2
20201026133536 48 0 0.0 0.0 0.00 0.00 0.00 90 1020.0
20201026133330 48 332 0.0 0.0 0.00 0.00 0.00 91 1019.2
20201026133059 48 0 0.0 0.0 0.00 0.00 0.00 90 1020.0
20201026132826 48 332 0.0 0.0 0.00 0.00 0.00 90 1019.1
20201026132538 48 0 0.0 0.0 0.00 0.00 0.00 90 1019.9
20201026132330 48 332 0.0 0.0 0.00 0.00 0.00 90 1019.1
20201026132042 48 0 0.0 0.0 0.00 0.00 0.00 90 1019.9
20201026131829 48 332 0.0 0.0 0.00 0.00 0.00 90 1019.1
20201026131619 48 0 0.0 0.0 0.00 0.00 0.00 90 1019.8
20201026131329 48 332 0.0 0.0 0.00 0.00 0.00 90 1019.0
20201026131031 48 0 0.0 0.0 0.00 0.00 0.00 90 1019.8
20201026130828 48 332 0.0 0.0 0.00 0.00 0.00 90 1019.0
20201026130531 48 0 0.0 0.0 0.00 0.00 0.00 90 1019.7
20201026130337 48 332 0.0 0.0 0.00 0.00 0.00 90 1018.9
20201026130121 48 0 0.0 0.0 0.00 0.00 0.00 90 1019.7
20201026125834 48 332 0.0 0.0 0.00 0.00 0.00 90 1018.8
20201026125545 48 0 0.0 3.0 0.00 0.00 0.00 90 1019.6
20201026125334 48 332 0.0 3.0 0.00 0.00 0.00 90 1018.9
20201026125030 48 0 0.0 3.0 0.00 0.00 0.00 90 1019.8
20201026124832 48 332 0.0 0.0 0.00 0.00 0.00 90 1018.9
20201026124605 48 0 0.0 0.0 0.00 0.00 0.00 90 1019.6
20201026124343 48 332 0.0 0.0 0.00 0.00 0.00 90 1018.8
20201026124030 48 0 0.0 0.0 0.00 0.00 0.00 90 1019.6
20201026123822 47 332 0.0 0.0 0.00 0.00 0.00 90 1018.8
20201026123532 48 0 0.0 2.0 0.00 0.00 0.00 90 1019.5
20201026123323 47 332 0.0 2.0 0.00 0.00 0.00 90 1018.7
20201026123052 48 0 0.0 2.0 0.00 0.00 0.00 90 1019.5
20201026122828 47 332 0.0 1.0 0.00 0.00 0.00 90 1018.7
20201026122537 48 0 0.0 0.0 0.00 0.00 0.00 90 1019.4
20201026122327 47 332 0.0 0.0 0.00 0.00 0.00 90 1018.6
20201026122037 48 0 0.0 3.0 0.00 0.00 0.00 90 1019.3
20201026121829 47 332 0.0 3.0 0.00 0.00 0.00 90 1018.6
20201026121638 48 0 0.0 3.0 0.00 0.00 0.00 90 1019.3
20201026121327 47 332 0.0 3.0 0.00 0.00 0.00 90 1018.5
20201026121034 48 30 0.0 0.0 0.00 0.00 0.00 90 1019.2
20201026120850 47 33 0.0 0.0 0.00 0.00 0.00 90 1018.4
20201026120531 48 0 0.0 0.0 0.00 0.00 0.00 90 1019.1
20201026120329 47 36 0.0 0.0 0.00 0.00 0.00 90 1018.1
20201026120055 48 0 0.0 0.0 0.00 0.00 0.00 90 1018.9
20201026115822 47 36 0.0 0.0 0.00 0.00 0.00 90 1018.0
20201026115535 48 0 0.0 0.0 0.00 0.00 0.00 90 1018.9
20201026115324 47 36 0.0 0.0 0.00 0.00 0.00 90 1018.0
20201026115031 48 0 0.0 0.0 0.00 0.00 0.00 90 1018.8
20201026114822 47 36 0.0 0.0 0.00 0.00 0.00 90 1018.0
20201026114600 48 0 0.0 0.0 0.00 0.00 0.00 90 1018.8
20201026114319 47 36 0.0 0.0 0.00 0.00 0.00 90 1017.9
20201026114037 48 0 0.0 0.0 0.00 0.00 0.00 90 1018.8
20201026113839 47 36 0.0 0.0 0.00 0.00 0.00 90 1017.9
20201026113532 48 0 0.0 0.0 0.00 0.00 0.00 90 1018.7
20201026113321 47 36 0.0 0.0 0.00 0.00 0.00 90 1017.8
20201026113127 48 0 0.0 0.0 0.00 0.00 0.00 90 1018.7
20201026112823 47 36 0.0 0.0 0.00 0.00 0.00 90 1017.9
20201026112548 48 0 0.0 0.0 0.00 0.00 0.00 90 1018.7
20201026112321 47 36 0.0 0.0 0.00 0.00 0.00 90 1018.0
20201026112032 48 0 0.0 0.0 0.00 0.00 0.00 90 1018.8
20201026111823 47 36 0.0 0.0 0.00 0.00 0.00 90 1017.9
20201026111611 48 0 0.0 0.0 0.00 0.00 0.00 90 1018.7
20201026111327 47 36 0.0 0.0 0.00 0.00 0.00 90 1017.7
20201026111038 48 0 0.0 0.0 0.00 0.00 0.00 90 1018.6
20201026110822 47 36 0.0 0.0 0.00 0.00 0.00 90 1017.6
20201026110532 48 0 0.0 0.0 0.00 0.00 0.00 90 1018.4
20201026110324 47 36 0.0 0.0 0.00 0.00 0.00 90 1017.5
20201026110101 48 0 0.0 0.0 0.00 0.00 0.00 90 1018.5
20201026105824 47 36 0.0 0.0 0.00 0.00 0.00 90 1017.5
20201026105533 48 0 0.0 0.0 0.00 0.00 0.00 89 1018.4
20201026105321 47 36 0.0 0.0 0.00 0.00 0.00 90 1017.5
20201026105044 48 0 0.0 0.0 0.00 0.00 0.00 89 1018.4
20201026104818 47 36 0.0 0.0 0.00 0.00 0.00 90 1017.4
20201026104554 48 0 0.0 0.0 0.00 0.00 0.00 89 1018.3
20201026104321 47 36 0.0 0.0 0.00 0.00 0.00 90 1017.3
20201026104037 48 0 0.0 0.0 0.00 0.00 0.00 89 1018.2
20201026103837 47 36 0.0 0.0 0.00 0.00 0.00 90 1017.2
20201026103531 48 0 0.0 0.0 0.00 0.00 0.00 89 1018.1
20201026103348 47 36 0.0 0.0 0.00 0.00 0.00 90 1017.2
20201026103039 48 0 0.0 0.0 0.00 0.00 0.00 89 1018.2
20201026102819 47 36 0.0 0.0 0.00 0.00 0.00 90 1017.2
20201026102539 48 0 0.0 0.0 0.00 0.00 0.00 89 1018.2
20201026102335 47 36 0.0 0.0 0.00 0.00 0.00 89 1017.3
20201026102038 48 0 0.0 0.0 0.00 0.00 0.00 89 1018.2
20201026101832 47 36 0.0 0.0 0.00 0.00 0.00 89 1017.3
20201026101602 48 0 0.0 0.0 0.00 0.00 0.00 89 1018.3
20201026101315 47 36 0.0 0.0 0.00 0.00 0.00 89 1017.3
20201026101033 48 0 0.0 0.0 0.00 0.00 0.00 89 1018.4
20201026100835 48 36 0.0 0.0 0.00 0.00 0.00 89 1017.4
20201026100540 48 0 0.0 0.0 0.00 0.00 0.00 89 1018.4
20201026100345 48 36 0.0 0.0 0.00 0.00 0.00 89 1017.4
20201026100123 48 0 0.0 0.0 0.00 0.00 0.00 89 1018.3
20201026095815 48 36 0.0 0.0 0.00 0.00 0.00 89 1017.5
20201026095548 48 0 0.0 0.0 0.00 0.00 0.00 89 1018.3
20201026095317 48 36 0.0 0.0 0.00 0.00 0.00 89 1017.4
20201026095035 48 0 0.0 0.0 0.00 0.00 0.00 89 1018.3
20201026094819 47 36 0.0 0.0 0.00 0.00 0.00 89 1017.2
20201026094537 48 0 0.0 0.0 0.00 0.00 0.00 88 1018.1
20201026094340 48 36 0.0 0.0 0.00 0.00 0.00 89 1017.1
20201026094036 48 0 0.0 0.0 0.00 0.00 0.00 88 1018.0
20201026093837 48 36 0.0 0.0 0.00 0.00 0.00 89 1017.0
20201026093536 48 0 0.0 0.0 0.00 0.00 0.00 88 1018.0
20201026093317 48 36 0.0 0.0 0.00 0.00 0.00 89 1017.0
20201026093050 48 0 0.0 0.0 0.00 0.00 0.00 88 1018.0
20201026092819 48 36 0.0 0.0 0.00 0.00 0.00 89 1017.1
20201026092534 48 0 0.0 0.0 0.00 0.00 0.00 88 1018.1
20201026092325 48 36 0.0 0.0 0.00 0.00 0.00 88 1017.1
20201026092036 48 0 0.0 0.0 0.00 0.00 0.00 88 1018.1
20201026091822 48 36 0.0 0.0 0.00 0.00 0.00 88 1017.0
20201026091609 48 0 0.0 0.0 0.00 0.00 0.00 88 1017.9
20201026091323 48 36 0.0 0.0 0.00 0.00 0.00 88 1016.9
20201026091032 48 0 0.0 0.0 0.00 0.00 0.00 87 1018.0
20201026090827 48 36 0.0 0.0 0.00 0.00 0.00 88 1017.1
20201026090531 48 0 0.0 0.0 0.00 0.00 0.00 87 1018.1
20201026090325 48 36 0.0 0.0 0.00 0.00 0.00 88 1017.2
20201026090034 48 0 0.0 0.0 0.00 0.00 0.00 87 1018.0
20201026085821 48 36 0.0 0.0 0.00 0.00 0.00 88 1016.9
20201026085534 48 0 0.0 0.0 0.00 0.00 0.00 87 1017.8
20201026085324 48 36 0.0 0.0 0.00 0.00 0.00 88 1016.9
20201026085043 48 0 0.0 0.0 0.00 0.00 0.00 87 1017.7
20201026084826 48 36 0.0 0.0 0.00 0.00 0.00 88 1016.8
20201026084623 48 0 0.0 0.0 0.00 0.00 0.00 87 1017.8
20201026084323 48 36 0.0 0.0 0.00 0.00 0.00 88 1016.9
20201026084039 48 0 0.0 0.0 0.00 0.00 0.00 87 1018.0
20201026083845 48 36 0.0 0.0 0.00 0.00 0.00 87 1017.0
20201026083615 48 0 0.0 2.0 0.00 0.00 0.00 87 1018.0
20201026083320 48 36 0.0 2.0 0.00 0.00 0.00 87 1017.0
20201026083049 48 0 0.0 2.0 0.00 0.00 0.00 87 1018.0
20201026082820 48 36 1.0 2.0 0.00 0.00 0.00 87 1016.9
20201026082531 48 0 0.0 0.0 0.00 0.00 0.00 87 1017.9
20201026082336 48 79 0.0 0.0 0.00 0.00 0.00 87 1016.8
20201026082038 48 0 0.0 0.0 0.00 0.00 0.00 87 1017.7
20201026081817 48 79 0.0 0.0 0.00 0.00 0.00 87 1016.7
20201026081557 48 0 0.0 0.0 0.00 0.00 0.00 87 1017.7
20201026081336 48 79 0.0 0.0 0.00 0.00 0.00 87 1016.7
20201026081053 48 0 0.0 0.0 0.00 0.00 0.00 87 1017.8
20201026080822 48 79 0.0 0.0 0.00 0.00 0.00 87 1016.7
20201026080531 48 0 0.0 0.0 0.00 0.00 0.00 87 1017.8
20201026080323 48 79 0.0 0.0 0.00 0.00 0.00 87 1016.8
20201026080117 48 0 0.0 0.0 0.00 0.00 0.00 87 1017.8
20201026075816 48 79 0.0 0.0 0.00 0.00 0.00 87 1016.8
20201026075531 48 0 0.0 0.0 0.00 0.00 0.00 87 1017.8
20201026075321 47 79 0.0 0.0 0.00 0.00 0.00 87 1016.9
20201026075038 48 0 0.0 0.0 0.00 0.00 0.00 87 1017.9
20201026074827 47 79 0.0 0.0 0.00 0.00 0.00 87 1017.0
20201026074546 48 0 0.0 0.0 0.00 0.00 0.00 86 1017.8
20201026074323 47 79 0.0 0.0 0.00 0.00 0.00 87 1016.9
20201026074032 48 0 0.0 0.0 0.00 0.00 0.00 87 1018.0
20201026073823 47 79 0.0 0.0 0.00 0.00 0.00 87 1016.9
20201026073530 48 0 0.0 0.0 0.00 0.00 0.00 87 1018.0
20201026073321 47 79 0.0 0.0 0.00 0.00 0.00 87 1016.9
20201026073055 48 0 0.0 0.0 0.00 0.00 0.00 87 1017.8
20201026072833 47 109 0.0 0.0 0.00 0.00 0.00 87 1016.8
20201026072530 48 0 0.0 0.0 0.00 0.00 0.00 86 1017.8
20201026072322 47 109 0.0 0.0 0.00 0.00 0.00 87 1016.8
20201026072041 48 0 0.0 0.0 0.00 0.00 0.00 87 1017.8
20201026071821 47 109 0.0 0.0 0.00 0.00 0.00 87 1016.8
20201026071555 48 0 0.0 0.0 0.00 0.00 0.00 87 1017.8
20201026071326 47 110 0.0 0.0 0.00 0.00 0.00 87 1016.7
20201026071041 48 0 0.0 0.0 0.00 0.00 0.00 86 1017.5
20201026070829 47 110 0.0 0.0 0.00 0.00 0.00 87 1016.6
20201026070530 48 0 0.0 0.0 0.00 0.00 0.00 86 1017.6
20201026070325 47 110 0.0 0.0 0.00 0.00 0.00 87 1016.4
20201026070101 48 0 0.0 0.0 0.00 0.00 0.00 86 1017.2
20201026065826 47 109 0.0 0.0 0.00 0.00 0.00 87 1016.3
20201026065533 48 0 0.0 2.0 0.00 0.00 0.00 86 1017.1
20201026065328 47 109 0.0 2.0 0.00 0.00 0.00 87 1016.1
20201026065036 48 0 0.0 2.0 0.00 0.00 0.00 86 1017.1
20201026064832 47 109 0.0 2.0 0.00 0.00 0.00 87 1016.1
20201026064557 48 0 0.0 1.0 0.00 0.00 0.00 86 1017.2
20201026064329 47 109 0.0 1.0 0.00 0.00 0.00 87 1016.3
20201026064031 48 0 0.0 1.0 0.00 0.00 0.00 86 1017.2
20201026063828 47 93 0.0 1.0 0.00 0.00 0.00 87 1016.1
20201026063531 48 0 0.0 0.0 0.00 0.00 0.00 86 1017.1
20201026063329 47 80 0.0 0.0 0.00 0.00 0.00 87 1016.1
20201026063111 48 0 0.0 0.0 0.00 0.00 0.00 86 1017.0
20201026062825 47 80 0.0 0.0 0.00 0.00 0.00 87 1016.1
20201026062537 48 0 0.0 0.0 0.00 0.00 0.00 86 1017.0
20201026062335 47 80 0.0 0.0 0.00 0.00 0.00 87 1016.1
20201026062042 48 0 0.0 0.0 0.00 0.00 0.00 86 1017.1
20201026061824 47 78 0.0 0.0 0.00 0.00 0.00 87 1016.1
20201026061620 48 0 0.0 0.0 0.00 0.00 0.00 86 1017.2
20201026061318 47 79 0.0 0.0 0.00 0.00 0.00 87 1016.3
20201026061039 48 0 0.0 0.0 0.00 0.00 0.00 87 1017.4
20201026060820 47 79 0.0 0.0 0.00 0.00 0.00 87 1016.5
20201026060530 48 0 0.0 0.0 0.00 0.00 0.00 87 1017.5
20201026060318 47 79 0.0 0.0 0.00 0.00 0.00 87 1016.5
20201026060048 48 0 0.0 0.0 0.00 0.00 0.00 87 1017.6
20201026055837 47 79 0.0 0.0 0.00 0.00 0.00 88 1016.7
20201026055533 48 0 0.0 0.0 0.00 0.00 0.00 87 1017.6
20201026055332 47 79 0.0 0.0 0.00 0.00 0.00 88 1016.7
20201026055034 48 0 0.0 0.0 0.00 0.00 0.00 87 1017.7
20201026054828 47 79 0.0 0.0 0.00 0.00 0.00 88 1016.7
20201026054552 48 0 0.0 0.0 0.00 0.00 0.00 87 1017.7
20201026054325 47 79 0.0 0.0 0.00 0.00 0.00 88 1016.7
20201026054035 48 0 0.0 0.0 0.00 0.00 0.00 87 1017.7
20201026053820 47 79 0.0 0.0 0.00 0.00 0.00 88 1016.8
20201026053620 48 0 0.0 0.0 0.00 0.00 0.00 87 1017.7
20201026053339 47 79 0.0 0.0 0.00 0.00 0.00 88 1016.8
20201026053050 48 0 0.0 0.0 0.00 0.00 0.00 87 1017.8
20201026052834 47 79 0.0 0.0 0.00 0.00 0.00 88 1016.8
20201026052534 48 0 0.0 0.0 0.00 0.00 0.00 87 1017.8
20201026052331 47 79 0.0 0.0 0.00 0.00 0.00 88 1016.8
20201026052044 48 0 0.0 0.0 0.00 0.00 0.00 87 1017.8
20201026051827 47 79 0.0 0.0 0.00 0.00 0.00 88 1016.8
20201026051543 48 0 0.0 0.0 0.00 0.00 0.00 87 1017.8
20201026051326 47 79 0.0 0.0 0.00 0.00 0.00 87 1016.9
20201026051039 48 0 0.0 0.0 0.00 0.00 0.00 87 1017.9
20201026050821 47 79 0.0 0.0 0.00 0.00 0.00 88 1016.9
20201026050535 47 0 0.0 0.0 0.00 0.00 0.00 87 1017.9
20201026050320 47 79 0.0 0.0 0.00 0.00 0.00 87 1017.0
20201026050135 47 0 0.0 0.0 0.00 0.00 0.00 87 1018.1
20201026045833 47 79 0.0 0.0 0.00 0.00 0.00 87 1017.2
20201026045542 47 0 0.0 0.0 0.00 0.00 0.00 87 1018.1
20201026045320 47 79 0.0 0.0 0.00 0.00 0.00 87 1017.1
20201026045035 47 0 0.0 0.0 0.00 0.00 0.00 87 1018.0
20201026044836 47 79 0.0 0.0 0.00 0.00 0.00 87 1017.0
20201026044540 47 0 0.0 0.0 0.00 0.00 0.00 87 1018.0
20201026044331 47 79 0.0 0.0 0.00 0.00 0.00 87 1016.9
20201026044034 47 0 0.0 0.0 0.00 0.00 0.00 87 1018.0
20201026043829 47 79 0.0 0.0 0.00 0.00 0.00 87 1016.9
20201026043544 47 0 0.0 0.0 0.00 0.00 0.00 87 1017.9
20201026043329 47 79 0.0 0.0 0.00 0.00 0.00 87 1016.9
20201026043108 47 0 0.0 0.0 0.00 0.00 0.00 87 1017.9
20201026042825 47 79 0.0 0.0 0.00 0.00 0.00 87 1017.0
20201026042535 47 0 0.0 0.0 0.00 0.00 0.00 87 1018.0
20201026042322 47 79 0.0 0.0 0.00 0.00 0.00 87 1017.1
20201026042034 47 0 0.0 0.0 0.00 0.00 0.00 87 1018.0
20201026041838 47 79 0.0 0.0 0.00 0.00 0.00 87 1017.1
20201026041550 47 0 0.0 0.0 0.00 0.00 0.00 87 1017.9
20201026041333 47 79 0.0 0.0 0.00 0.00 0.00 87 1017.0
20201026041032 47 0 0.0 0.0 0.00 0.00 0.00 87 1018.1
20201026040831 47 79 0.0 0.0 0.00 0.00 0.00 87 1017.2
20201026040533 47 0 0.0 0.0 0.00 0.00 0.00 87 1018.0
20201026040329 47 79 0.0 0.0 0.00 0.00 0.00 87 1017.0
20201026040118 47 0 0.0 0.0 0.00 0.00 0.00 87 1018.0
20201026035828 47 79 0.0 0.0 0.00 0.00 0.00 87 1016.9
20201026035532 47 0 0.0 0.0 0.00 0.00 0.00 87 1017.9
20201026035326 47 79 0.0 0.0 0.00 0.00 0.00 87 1017.1
20201026035036 47 0 0.0 1.0 0.00 0.00 0.00 87 1018.0
20201026034824 47 79 0.0 1.0 0.00 0.00 0.00 87 1017.0
20201026034630 47 0 0.0 1.0 0.00 0.00 0.00 87 1017.9
20201026034323 47 79 0.0 0.0 0.00 0.00 0.00 87 1017.1
20201026034036 47 0 0.0 0.0 0.00 0.00 0.00 87 1018.1
20201026033822 47 79 0.0 0.0 0.00 0.00 0.00 87 1017.3
20201026033531 47 0 0.0 0.0 0.00 0.00 0.00 87 1018.1
20201026033319 47 79 0.0 0.0 0.00 0.00 0.00 87 1017.2
20201026033141 47 0 0.0 0.0 0.00 0.00 0.00 87 1018.2
20201026032833 47 79 0.0 0.0 0.00 0.00 0.00 87 1017.3
20201026032536 47 0 0.0 0.0 0.00 0.00 0.00 86 1018.2
20201026032331 47 79 0.0 0.0 0.00 0.00 0.00 87 1017.3
20201026032039 47 0 0.0 0.0 0.00 0.00 0.00 86 1018.2
20201026031834 47 79 0.0 0.0 0.00 0.00 0.00 87 1017.3
20201026031619 47 0 0.0 0.0 0.00 0.00 0.00 86 1018.2
20201026031331 47 79 0.0 0.0 0.00 0.00 0.00 87 1017.3
20201026031033 47 0 0.0 0.0 0.00 0.00 0.00 86 1018.2
20201026030823 47 79 0.0 0.0 0.00 0.00 0.00 87 1017.2
20201026030549 47 0 0.0 0.0 0.00 0.00 0.00 86 1018.2
20201026030325 47 79 0.0 0.0 0.00 0.00 0.00 86 1017.3
20201026030121 47 0 0.0 0.0 0.00 0.00 0.00 86 1018.2
20201026025820 47 79 0.0 0.0 0.00 0.00 0.00 86 1017.3
20201026025539 47 0 0.0 0.0 0.00 0.00 0.00 86 1018.1
20201026025320 47 79 0.0 0.0 0.00 0.00 0.00 86 1017.2
20201026025039 47 0 0.0 0.0 0.00 0.00 0.00 86 1018.2
20201026024836 47 79 0.0 0.0 0.00 0.00 0.00 86 1017.2
20201026024613 47 0 0.0 0.0 0.00 0.00 0.00 86 1018.0
20201026024333 47 79 0.0 0.0 0.00 0.00 0.00 86 1017.1
20201026024030 47 0 0.0 0.0 0.00 0.00 0.00 86 1017.9
20201026023828 47 79 0.0 0.0 0.00 0.00 0.00 86 1017.1
20201026023534 47 0 0.0 0.0 0.00 0.00 0.00 86 1017.9
20201026023328 47 79 0.0 0.0 0.00 0.00 0.00 86 1017.1
20201026023154 47 0 0.0 0.0 0.00 0.00 0.00 86 1018.1
20201026022826 47 85 0.0 0.0 0.00 0.00 0.00 86 1017.1
20201026022540 47 0 0.0 0.0 0.00 0.00 0.00 86 1018.0
20201026022331 47 85 0.0 0.0 0.00 0.00 0.00 86 1017.1
20201026022033 47 0 0.0 0.0 0.00 0.00 0.00 86 1018.0
20201026021830 47 85 0.0 0.0 0.00 0.00 0.00 86 1017.1
20201026021602 47 0 0.0 0.0 0.00 0.00 0.00 86 1018.1
20201026021332 47 85 0.0 0.0 0.00 0.00 0.00 86 1017.2
20201026021050 47 0 0.0 0.0 0.00 0.00 0.00 86 1018.0
20201026020827 47 85 0.0 0.0 0.00 0.00 0.00 86 1017.0
20201026020531 47 0 0.0 0.0 0.00 0.00 0.00 86 1017.9
20201026020326 47 85 0.0 0.0 0.00 0.00 0.00 86 1017.0
20201026020114 47 0 0.0 0.0 0.00 0.00 0.00 86 1018.0
20201026015830 47 85 0.0 0.0 0.00 0.00 0.00 86 1017.1
20201026015529 47 0 0.0 0.0 0.00 0.00 0.00 86 1018.0
20201026015328 47 85 0.0 0.0 0.00 0.00 0.00 86 1017.1
20201026015033 47 0 0.0 0.0 0.00 0.00 0.00 86 1018.0
20201026014822 47 84 0.0 0.0 0.00 0.00 0.00 86 1017.1
20201026014606 47 0 0.0 0.0 0.00 0.00 0.00 86 1018.0
20201026014320 47 84 0.0 0.0 0.00 0.00 0.00 86 1017.1
20201026014043 47 0 0.0 0.0 0.00 0.00 0.00 86 1018.0
20201026013818 47 84 0.0 0.0 0.00 0.00 0.00 86 1017.0
20201026013537 47 0 0.0 0.0 0.00 0.00 0.00 86 1017.9
20201026013317 47 85 0.0 0.0 0.00 0.00 0.00 86 1016.8
20201026013045 47 0 0.0 4.0 0.00 0.00 0.00 86 1017.8
20201026012820 47 85 0.0 4.0 0.00 0.00 0.00 86 1016.8
20201026012530 47 0 0.0 4.0 0.00 0.00 0.00 86 1017.8
20201026012324 47 60 0.0 5.0 0.00 0.00 0.00 86 1016.8
20201026012029 47 0 0.0 5.0 0.00 0.00 0.00 86 1017.8
20201026011821 47 59 2.0 5.0 0.00 0.00 0.00 86 1016.8
20201026011559 47 0 1.0 5.0 0.00 0.00 0.00 86 1017.8
20201026011319 47 64 0.0 5.0 0.00 0.00 0.00 86 1016.9
20201026011032 47 0 0.0 4.0 0.00 0.00 0.00 86 1018.0
20201026010834 47 81 2.0 5.0 0.00 0.00 0.00 86 1017.0
20201026010533 47 0 0.0 5.0 0.00 0.00 0.00 86 1018.0
20201026010335 47 87 0.0 5.0 0.00 0.00 0.00 86 1016.9
20201026010113 47 83 1.0 5.0 0.00 0.00 0.00 86 1018.0
20201026005833 47 97 0.0 2.0 0.00 0.00 0.00 87 1017.1
20201026005538 47 0 0.0 3.0 0.00 0.00 0.00 86 1018.1
20201026005332 47 83 0.0 3.0 0.00 0.00 0.00 87 1017.1
20201026005033 47 0 0.0 3.0 0.00 0.00 0.00 86 1018.0
20201026004827 47 83 0.0 3.0 0.00 0.00 0.00 87 1017.1
20201026004539 47 0 0.0 0.0 0.00 0.00 0.00 86 1018.1
20201026004323 47 81 0.0 0.0 0.00 0.00 0.00 87 1017.2
20201026004052 47 0 0.0 2.0 0.00 0.00 0.00 86 1018.2
20201026003824 47 81 0.0 2.0 0.00 0.00 0.00 87 1017.3
20201026003557 47 0 0.0 4.0 0.00 0.00 0.00 86 1018.3
20201026003326 47 81 0.0 4.0 0.00 0.00 0.00 86 1017.5
20201026003056 47 0 0.0 4.0 0.00 0.00 0.00 86 1018.5
20201026002833 47 75 0.0 4.0 0.00 0.00 0.00 86 1017.6
20201026002555 47 0 0.0 0.0 0.00 0.00 0.00 86 1018.5
20201026002333 47 69 0.0 2.0 0.00 0.00 0.00 87 1017.6
20201026002032 47 0 0.0 2.0 0.00 0.00 0.00 86 1018.5
20201026001830 47 70 0.0 3.0 0.00 0.00 0.00 87 1017.6
20201026001638 47 0 0.0 4.0 0.00 0.00 0.00 86 1018.5
20201026001332 47 71 0.0 4.0 0.00 0.00 0.00 87 1017.6
20201026001040 47 0 0.0 4.0 0.00 0.00 0.00 86 1018.5
20201026000836 46 67 0.0 4.0 0.00 0.00 0.00 87 1017.7
20201026000552 47 0 0.0 4.0 0.00 0.00 0.00 86 1018.5
20201026000319 47 56 0.0 4.0 0.00 0.00 0.00 87 1017.6
20201026000044 47 0 0.0 4.0 0.00 0.00 0.00 86 1018.5
20201025235819 47 97 0.0 4.0 0.00 0.00 0.00 87 1017.7
20201025235537 47 0 0.0 4.0 0.00 0.00 0.00 86 1018.4
20201025235324 47 66 0.0 4.0 0.00 0.00 0.00 87 1017.5
20201025235100 47 0 0.0 4.0 0.00 0.00 0.00 86 1018.4
20201025234822 47 68 0.0 2.0 0.00 0.00 0.00 87 1017.6
20201025234557 47 0 0.0 4.0 0.00 0.00 0.00 86 1018.3
20201025234325 47 29 0.0 4.0 0.00 0.00 0.00 86 1017.5
20201025234048 47 0 0.0 4.0 0.00 0.00 0.00 86 1018.2
20201025233818 47 77 1.0 4.0 0.00 0.00 0.00 86 1017.4
20201025233555 47 0 0.0 4.0 0.00 0.00 0.00 86 1018.4
20201025233319 47 50 0.0 4.0 0.00 0.00 0.00 86 1017.5
20201025233116 47 0 0.0 4.0 0.00 0.00 0.00 85 1018.4
20201025232832 47 44 1.0 4.0 0.00 0.00 0.00 86 1017.4
20201025232534 47 0 0.0 4.0 0.00 0.00 0.00 85 1018.4
20201025232319 47 66 0.0 4.0 0.00 0.00 0.00 89 1017.4
20201025232035 47 0 0.0 4.0 0.00 0.00 0.00 85 1018.2
20201025231835 47 67 1.0 4.0 0.00 0.00 0.00 85 1017.3
20201025231708 47 46 0.0 0.0 0.00 0.00 0.00 84 1018.3
20201025231337 47 40 0.0 0.0 0.00 0.00 0.00 84 1017.4
20201025231048 48 0 0.0 2.0 0.00 0.00 0.00 84 1018.3
20201025230827 47 32 0.0 2.0 0.00 0.00 0.00 84 1017.4
20201025230554 48 0 0.0 2.0 0.00 0.00 0.00 83 1018.1
20201025230330 47 33 0.0 2.0 0.00 0.00 0.00 83 1017.2
20201025230129 48 0 0.0 0.0 0.00 0.00 0.00 83 1018.1
20201025225830 48 37 0.0 0.0 0.00 0.00 0.00 82 1017.4
20201025225537 48 0 0.0 4.0 0.00 0.00 0.00 81 1018.3
20201025225336 48 63 0.0 4.0 0.00 0.00 0.00 82 1017.5
20201025225032 48 0 0.0 6.0 0.00 0.00 0.00 80 1018.4
20201025224832 48 58 0.0 6.0 0.00 0.00 0.00 81 1017.4
20201025224547 48 111 1.0 6.0 0.00 0.00 0.00 79 1018.4
20201025224333 48 75 2.0 6.0 0.00 0.00 0.00 80 1017.5
20201025224033 49 0 1.0 4.0 0.00 0.00 0.00 79 1018.5
20201025223828 48 81 1.0 4.0 0.00 0.00 0.00 80 1017.6
20201025223535 49 0 0.0 0.0 0.00 0.00 0.00 79 1018.5
20201025223330 48 65 0.0 0.0 0.00 0.00 0.00 80 1017.6
20201025223050 49 0 0.0 3.0 0.00 0.00 0.00 79 1018.4
20201025222828 48 65 0.0 3.0 0.00 0.00 0.00 80 1017.5
20201025222544 49 0 0.0 3.0 0.00 0.00 0.00 79 1018.4
20201025222326 48 66 0.0 3.0 0.00 0.00 0.00 80 1017.5
20201025222043 48 65 0.0 6.0 0.00 0.00 0.00 79 1018.4
20201025221823 48 70 0.0 7.0 0.00 0.00 0.00 79 1017.4
20201025221540 49 0 0.0 6.0 0.00 0.00 0.00 79 1018.4
20201025221320 48 56 2.0 7.0 0.00 0.00 0.00 79 1017.4
20201025221048 49 70 2.0 6.0 0.00 0.00 0.00 79 1018.2
20201025220836 48 58 1.0 5.0 0.00 0.00 0.00 79 1017.2
20201025220536 49 0 0.0 5.0 0.00 0.00 0.00 78 1018.1
20201025220335 48 62 0.0 5.0 0.00 0.00 0.00 79 1017.4
20201025220043 49 59 0.0 5.0 0.00 0.00 0.00 78 1018.4
20201025215830 48 77 0.0 2.0 0.00 0.00 0.00 79 1017.4
20201025215558 49 0 0.0 4.0 0.00 0.00 0.00 78 1018.4
20201025215333 48 89 0.0 5.0 0.00 0.00 0.00 79 1017.4
20201025215035 49 0 0.0 6.0 0.00 0.00 0.00 78 1018.2
20201025214839 48 99 0.0 6.0 0.00 0.00 0.00 78 1017.4
20201025214552 49 0 0.0 6.0 0.00 0.00 0.00 78 1018.3
20201025214337 48 102 1.0 6.0 0.00 0.00 0.00 78 1017.3
20201025214035 49 0 0.0 6.0 0.00 0.00 0.00 77 1018.3
20201025213837 49 132 0.0 5.0 0.00 0.00 0.00 77 1017.4
20201025213531 49 60 2.0 6.0 0.00 0.00 0.00 76 1018.3
20201025213318 49 79 2.0 5.0 0.00 0.00 0.00 77 1017.4
20201025213129 50 0 0.0 6.0 0.00 0.00 0.00 76 1018.3
20201025212824 49 62 0.0 5.0 0.00 0.00 0.00 76 1017.3
20201025212533 50 61 1.0 7.0 0.00 0.00 0.00 75 1018.2
20201025212324 49 63 2.0 7.0 0.00 0.00 0.00 75 1017.1
20201025212045 50 51 1.0 9.0 0.00 0.00 0.00 75 1018.1
20201025211822 49 62 0.0 9.0 0.00 0.00 0.00 75 1017.0
20201025211609 50 69 4.0 9.0 0.00 0.00 0.00 74 1018.0
20201025211328 50 74 4.0 9.0 0.00 0.00 0.00 74 1017.0
20201025211032 50 0 0.0 9.0 0.00 0.00 0.00 74 1017.9
20201025210827 50 87 1.0 8.0 0.00 0.00 0.00 74 1016.9
20201025210541 50 65 2.0 10.0 0.00 0.00 0.00 72 1017.9
20201025210332 50 83 4.0 9.0 0.00 0.00 0.00 72 1016.9
20201025210045 50 49 3.0 10.0 0.00 0.00 0.00 71 1017.8
20201025205829 50 72 3.0 8.0 0.00 0.00 0.00 72 1016.8
20201025205539 51 51 2.0 7.0 0.00 0.00 0.00 71 1017.8
20201025205336 50 85 2.0 6.0 0.00 0.00 0.00 71 1016.8
20201025205037 51 71 1.0 8.0 0.00 0.00 0.00 70 1017.8
20201025204838 50 55 3.0 9.0 0.00 0.00 0.00 70 1016.7
20201025204549 51 70 2.0 9.0 0.00 0.00 0.00 69 1017.8
20201025204324 50 91 4.0 9.0 0.00 0.00 0.00 70 1016.7
20201025204051 51 70 2.0 9.0 0.00 0.00 0.00 69 1017.7
20201025203822 50 83 2.0 8.0 0.00 0.00 0.00 70 1016.7
20201025203532 51 36 2.0 8.0 0.00 0.00 0.00 69 1017.7
20201025203322 50 66 2.0 8.0 0.00 0.00 0.00 70 1016.6
20201025203043 51 71 2.0 9.0 0.00 0.00 0.00 69 1017.7
20201025202836 50 77 3.0 9.0 0.00 0.00 0.00 69 1016.6
20201025202534 51 63 3.0 10.0 0.00 0.00 0.00 71 1017.6
20201025202338 50 79 2.0 9.0 0.00 0.00 0.00 69 1016.7
20201025202047 51 55 3.0 10.0 0.00 0.00 0.00 68 1017.9
20201025201838 50 62 3.0 7.0 0.00 0.00 0.00 69 1016.9
20201025201721 51 61 2.0 8.0 0.00 0.00 0.00 68 1017.9
20201025201338 50 64 2.0 8.0 0.00 0.00 0.00 69 1017.1
20201025201032 51 100 2.0 8.0 0.00 0.00 0.00 68 1018.0
20201025200841 50 65 3.0 8.0 0.00 0.00 0.00 69 1017.0
20201025200549 51 0 1.0 7.0 0.00 0.00 0.00 68 1018.0
20201025200340 50 58 2.0 7.0 0.00 0.00 0.00 68 1017.0
20201025200140 51 0 0.0 7.0 0.00 0.00 0.00 68 1018.0
20201025195834 50 64 0.0 7.0 0.00 0.00 0.00 68 1017.1
20201025195548 51 65 1.0 6.0 0.00 0.00 0.00 67 1018.0
20201025195334 50 71 1.0 5.0 0.00 0.00 0.00 68 1017.0
20201025195035 51 80 1.0 5.0 0.00 0.00 0.00 67 1018.1
20201025194839 50 74 2.0 5.0 0.00 0.00 0.00 67 1017.1
20201025194609 51 71 1.0 3.0 0.00 0.00 0.00 67 1018.1
20201025194329 50 69 1.0 3.0 0.00 0.00 0.00 67 1017.2
20201025194042 51 69 0.0 3.0 0.00 0.00 0.00 66 1018.2
20201025193833 50 68 1.0 3.0 0.00 0.00 0.00 67 1017.4
20201025193532 51 69 0.0 4.0 0.00 0.00 0.00 66 1018.2
20201025193334 50 25 0.0 4.0 0.00 0.00 0.00 66 1017.4
20201025193039 51 24 0.0 4.0 0.00 0.00 0.00 65 1018.3
20201025192840 50 26 1.0 4.0 0.00 0.00 0.00 66 1017.4
20201025192535 51 0 1.0 4.0 0.00 0.00 0.00 65 1018.3
20201025192332 50 58 1.0 2.0 0.00 0.00 0.00 66 1017.5